createdAt,value
2019-05-10T00:00:13.642Z,11.08
2019-05-10T00:02:59.792Z,11.08
2019-05-10T00:05:47.884Z,11.07
2019-05-10T00:08:34.521Z,11.03
2019-05-10T00:11:07.210Z,11.03
2019-05-10T00:13:54.294Z,11.06
2019-05-10T00:16:22.995Z,11.06
2019-05-10T00:18:49.787Z,11.05
2019-05-10T00:21:16.793Z,10.96
2019-05-10T00:23:43.582Z,10.91
2019-05-10T00:26:11.042Z,10.86
2019-05-10T00:28:38.472Z,10.81
2019-05-10T00:31:05.382Z,10.80
2019-05-10T00:33:32.780Z,10.80
2019-05-10T00:35:59.623Z,10.82
2019-05-10T00:38:26.917Z,10.80
2019-05-10T00:40:54.015Z,10.77
2019-05-10T00:43:21.203Z,10.74
2019-05-10T00:45:48.153Z,10.73
2019-05-10T00:48:15.050Z,10.72
2019-05-10T00:50:41.841Z,10.70
2019-05-10T00:53:08.639Z,10.66
2019-05-10T00:55:35.523Z,10.65
2019-05-10T00:58:02.378Z,10.60
2019-05-10T01:00:30.499Z,10.59
2019-05-10T01:02:57.850Z,10.57
2019-05-10T01:05:24.619Z,10.50
2019-05-10T01:07:51.840Z,10.46
2019-05-10T01:10:18.740Z,10.46
2019-05-10T01:12:45.544Z,10.48
2019-05-10T01:15:13.146Z,10.49
2019-05-10T01:17:39.952Z,10.48
2019-05-10T01:20:07.940Z,10.42
2019-05-10T01:22:35.270Z,10.36
2019-05-10T01:25:05.313Z,10.29
2019-05-10T01:27:32.111Z,10.22
2019-05-10T01:29:59.076Z,10.22
2019-05-10T01:32:25.981Z,10.20
2019-05-10T01:34:52.849Z,10.24
2019-05-10T01:37:19.797Z,10.26
2019-05-10T01:39:46.519Z,10.25
2019-05-10T01:42:13.418Z,10.27
2019-05-10T01:44:40.259Z,10.31
2019-05-10T01:47:07.344Z,10.34
2019-05-10T01:49:34.293Z,10.28
2019-05-10T01:52:01.512Z,10.28
2019-05-10T01:54:31.125Z,10.31
2019-05-10T01:56:57.934Z,10.35
2019-05-10T01:59:24.801Z,10.37
2019-05-10T02:01:51.697Z,10.42
2019-05-10T02:04:18.704Z,10.43
2019-05-10T02:06:46.469Z,10.42
2019-05-10T02:09:13.318Z,10.41
2019-05-10T02:11:40.493Z,10.42
2019-05-10T02:14:07.991Z,10.43
2019-05-10T02:16:34.771Z,10.46
2019-05-10T02:19:01.940Z,10.51
2019-05-10T02:21:28.792Z,10.55
2019-05-10T02:23:55.974Z,10.59
2019-05-10T02:26:23.187Z,10.63
2019-05-10T02:28:50.351Z,10.65
2019-05-10T02:31:21.310Z,10.66
2019-05-10T02:33:46.329Z,10.64
2019-05-10T02:36:13.523Z,10.62
2019-05-10T02:38:40.339Z,10.61
2019-05-10T02:41:07.933Z,10.60
2019-05-10T02:43:35.920Z,10.54
2019-05-10T02:46:02.995Z,10.53
2019-05-10T02:48:30.280Z,10.54
2019-05-10T02:50:57.278Z,10.45
2019-05-10T02:53:24.193Z,10.38
2019-05-10T02:55:51.125Z,10.33
2019-05-10T02:58:18.442Z,10.27
2019-05-10T03:00:48.589Z,10.24
2019-05-10T03:03:16.752Z,10.18
2019-05-10T03:05:48.163Z,10.23
2019-05-10T03:08:13.722Z,10.22
2019-05-10T03:10:46.227Z,10.22
2019-05-10T03:13:16.038Z,10.20
2019-05-10T03:15:47.185Z,10.22
2019-05-10T03:18:14.586Z,10.22
2019-05-10T03:20:46.232Z,10.23
2019-05-10T03:23:14.614Z,10.23
2019-05-10T03:25:41.847Z,10.18
2019-05-10T03:28:08.871Z,10.16
2019-05-10T03:30:36.055Z,10.12
2019-05-10T03:33:03.206Z,10.10
2019-05-10T03:35:31.137Z,10.12
2019-05-10T03:37:58.284Z,10.13
2019-05-10T03:40:25.315Z,10.17
2019-05-10T03:42:52.753Z,10.17
2019-05-10T03:45:19.890Z,10.09
2019-05-10T03:47:46.764Z,10.05
2019-05-10T03:50:14.037Z,10.01
2019-05-10T03:52:40.870Z,9.94
2019-05-10T03:55:08.019Z,9.98
2019-05-10T03:57:34.851Z,9.99
2019-05-10T04:00:05.821Z,10.00
2019-05-10T04:02:32.702Z,9.93
2019-05-10T04:04:59.973Z,9.87
2019-05-10T04:07:26.903Z,9.83
2019-05-10T04:09:54.678Z,9.76
2019-05-10T04:12:21.800Z,9.81
2019-05-10T04:14:49.175Z,9.87
2019-05-10T04:17:15.949Z,9.86
2019-05-10T04:19:43.186Z,9.89
2019-05-10T04:22:10.073Z,9.91
2019-05-10T04:24:37.070Z,9.90
2019-05-10T04:27:04.387Z,9.90
2019-05-10T04:29:31.538Z,9.87
2019-05-10T04:31:58.554Z,9.75
2019-05-10T04:34:25.406Z,9.57
2019-05-10T04:36:52.152Z,9.49
2019-05-10T04:39:18.893Z,9.42
2019-05-10T04:41:46.017Z,9.45
2019-05-10T04:44:12.770Z,9.43
2019-05-10T04:46:39.591Z,9.58
2019-05-10T04:49:06.390Z,9.73
2019-05-10T04:51:33.621Z,9.80
2019-05-10T04:54:00.782Z,9.86
2019-05-10T04:56:28.626Z,9.79
2019-05-10T04:58:55.396Z,9.68
2019-05-10T05:01:22.277Z,9.60
2019-05-10T05:03:49.530Z,9.65
2019-05-10T05:06:16.409Z,9.68
2019-05-10T05:08:43.519Z,9.69
2019-05-10T05:11:10.288Z,9.72
2019-05-10T05:13:36.998Z,9.73
2019-05-10T05:16:04.230Z,9.76
2019-05-10T05:18:31.040Z,9.77
2019-05-10T05:20:57.939Z,9.70
2019-05-10T05:23:24.727Z,9.71
2019-05-10T05:25:51.639Z,9.62
2019-05-10T05:28:23.042Z,9.62
2019-05-10T05:30:47.100Z,9.65
2019-05-10T05:33:13.840Z,9.73
2019-05-10T05:35:41.023Z,9.81
2019-05-10T05:38:07.818Z,9.87
2019-05-10T05:40:34.774Z,9.90
2019-05-10T05:43:02.764Z,9.96
2019-05-10T05:45:33.964Z,10.00
2019-05-10T05:47:59.060Z,10.06
2019-05-10T05:50:25.823Z,10.10
2019-05-10T05:52:52.943Z,10.23
2019-05-10T05:55:22.985Z,10.33
2019-05-10T05:57:48.577Z,10.43
2019-05-10T06:00:15.728Z,10.55
2019-05-10T06:02:44.804Z,10.61
2019-05-10T06:05:11.348Z,10.64
2019-05-10T06:07:39.509Z,10.70
2019-05-10T06:10:10.256Z,10.76
2019-05-10T06:12:37.472Z,10.82
2019-05-10T06:15:06.235Z,10.89
2019-05-10T06:17:33.310Z,10.96
2019-05-10T06:20:00.819Z,11.04
2019-05-10T06:22:29.446Z,11.11
2019-05-10T06:24:56.213Z,11.18
2019-05-10T06:27:22.990Z,11.28
2019-05-10T06:29:50.715Z,11.36
2019-05-10T06:32:17.477Z,11.40
2019-05-10T06:34:44.219Z,11.46
2019-05-10T06:37:11.108Z,11.48
2019-05-10T06:39:37.995Z,11.49
2019-05-10T06:42:05.200Z,11.58
2019-05-10T06:44:33.156Z,11.55
2019-05-10T06:47:02.293Z,11.56
2019-05-10T06:49:28.903Z,11.56
2019-05-10T06:51:55.813Z,11.59
2019-05-10T06:54:22.977Z,11.64
2019-05-10T06:56:49.748Z,11.69
2019-05-10T06:59:19.448Z,11.77
2019-05-10T07:01:51.452Z,11.82
2019-05-10T07:04:14.189Z,11.91
2019-05-10T07:06:41.279Z,11.94
2019-05-10T07:09:08.254Z,11.94
2019-05-10T07:11:35.430Z,12.00
2019-05-10T07:14:02.480Z,12.04
2019-05-10T07:16:29.601Z,12.08
2019-05-10T07:19:00.487Z,12.14
2019-05-10T07:21:27.276Z,12.19
2019-05-10T07:23:54.605Z,12.23
2019-05-10T07:26:24.606Z,12.26
2019-05-10T07:28:51.799Z,12.29
2019-05-10T07:31:23.517Z,12.39
2019-05-10T07:33:48.533Z,12.47
2019-05-10T07:36:20.504Z,12.52
2019-05-10T07:38:44.637Z,12.51
2019-05-10T07:41:11.518Z,12.58
2019-05-10T07:43:38.367Z,12.68
2019-05-10T07:46:07.027Z,12.79
2019-05-10T07:48:34.298Z,12.74
2019-05-10T07:51:01.130Z,12.71
2019-05-10T07:53:28.367Z,12.81
2019-05-10T07:56:00.097Z,12.89
2019-05-10T07:58:24.540Z,12.93
2019-05-10T08:00:51.780Z,12.91
2019-05-10T08:03:23.636Z,12.90
2019-05-10T08:05:55.501Z,13.01
2019-05-10T08:08:19.162Z,13.11
2019-05-10T08:10:48.686Z,13.24
2019-05-10T08:13:20.032Z,13.41
2019-05-10T08:15:44.098Z,13.56
2019-05-10T08:18:15.382Z,13.55
2019-05-10T08:20:49.181Z,13.42
2019-05-10T08:23:09.978Z,13.36
2019-05-10T08:25:43.847Z,13.52
2019-05-10T08:28:05.927Z,13.72
2019-05-10T08:30:42.833Z,13.75
2019-05-10T08:33:10.965Z,13.73
2019-05-10T08:35:40.106Z,13.86
2019-05-10T08:38:08.019Z,13.96
2019-05-10T08:40:37.874Z,14.19
2019-05-10T08:43:08.473Z,14.35
2019-05-10T08:45:33.277Z,14.34
2019-05-10T08:48:05.063Z,14.22
2019-05-10T08:50:48.445Z,14.17
2019-05-10T08:53:04.409Z,14.05
2019-05-10T08:55:27.456Z,14.06
2019-05-10T09:00:53.408Z,14.21
2019-05-10T09:03:17.162Z,14.17
2019-05-10T09:05:39.982Z,14.25
2019-05-10T09:08:13.694Z,14.32
2019-05-10T09:10:36.185Z,14.36
2019-05-10T09:13:03.673Z,14.37
2019-05-10T09:15:32.895Z,14.36
2019-05-10T09:18:04.423Z,14.29
2019-05-10T09:20:28.326Z,14.29
2019-05-10T09:22:55.215Z,14.33
2019-05-10T09:25:28.769Z,14.32
2019-05-10T09:27:53.071Z,14.33
2019-05-10T09:30:35.514Z,14.37
2019-05-10T09:33:08.756Z,14.41
2019-05-10T09:35:32.995Z,14.52
2019-05-10T09:38:02.053Z,14.55
2019-05-10T09:40:29.263Z,14.50
2019-05-10T09:42:59.346Z,14.41
2019-05-10T09:45:25.014Z,14.39
2019-05-10T09:47:52.993Z,14.35
2019-05-10T09:50:22.770Z,14.26
2019-05-10T09:52:49.292Z,14.24
2019-05-10T09:55:17.534Z,14.29
2019-05-10T09:57:44.855Z,14.29
2019-05-10T10:00:12.857Z,14.31
2019-05-10T10:02:40.543Z,14.31
2019-05-10T10:05:08.308Z,14.33
2019-05-10T10:07:37.230Z,14.37
2019-05-10T10:10:12.537Z,14.37
2019-05-10T10:12:37.304Z,14.39
2019-05-10T10:15:04.764Z,14.37
2019-05-10T10:17:38.674Z,14.33
2019-05-10T10:20:00.133Z,14.37
2019-05-10T10:22:27.822Z,14.33
2019-05-10T10:24:58.391Z,14.30
2019-05-10T10:27:26.077Z,14.23
2019-05-10T10:29:52.675Z,14.13
2019-05-10T10:32:24.494Z,14.14
2019-05-10T10:34:54.041Z,14.10
2019-05-10T10:37:20.655Z,14.10
2019-05-10T10:39:47.785Z,14.11
2019-05-10T10:42:15.080Z,14.19
2019-05-10T10:44:42.037Z,14.24
2019-05-10T10:47:09.502Z,14.19
2019-05-10T10:49:37.842Z,14.12
2019-05-10T10:52:11.439Z,14.02
2019-05-10T10:54:37.467Z,13.94
2019-05-10T10:57:03.898Z,13.97
2019-05-10T10:59:30.779Z,13.99
2019-05-10T11:02:28.008Z,13.97
2019-05-10T11:04:26.568Z,13.96
2019-05-10T11:07:09.223Z,13.93
2019-05-10T11:09:22.725Z,13.89
2019-05-10T11:11:51.526Z,13.85
2019-05-10T11:14:20.565Z,13.75
2019-05-10T11:16:52.993Z,13.70
2019-05-10T11:19:15.983Z,13.62
2019-05-10T11:21:42.870Z,13.56
2019-05-10T11:24:18.005Z,13.55
2019-05-10T11:26:40.694Z,13.62
2019-05-10T11:29:08.418Z,13.68
2019-05-10T11:31:35.506Z,13.71
2019-05-10T11:34:05.953Z,13.74
2019-05-10T11:36:32.286Z,13.72
2019-05-10T11:39:01.643Z,13.73
2019-05-10T11:41:31.434Z,13.80
2019-05-10T11:44:05.236Z,13.88
2019-05-10T11:46:31.026Z,13.97
2019-05-10T11:48:58.367Z,14.05
2019-05-10T11:51:25.836Z,14.12
2019-05-10T11:56:27.334Z,14.24
2019-05-10T11:58:55.397Z,14.36
2019-05-10T11:59:03.715Z,14.13
2019-05-10T12:01:22.133Z,14.53
2019-05-10T12:03:48.654Z,14.76
2019-05-10T12:06:15.531Z,14.88
2019-05-10T12:08:42.330Z,15.02
2019-05-10T12:11:25.427Z,15.25
2019-05-10T12:13:38.772Z,15.57
2019-05-10T12:16:05.521Z,15.64
2019-05-10T12:18:36.163Z,15.69
2019-05-10T12:23:31.788Z,15.85
2019-05-10T12:26:59.181Z,15.76
2019-05-10T12:27:13.813Z,15.91
2019-05-10T12:28:32.151Z,15.87
2019-05-10T12:30:57.527Z,15.72
2019-05-10T12:33:27.728Z,15.55
2019-05-10T12:35:55.424Z,15.39
2019-05-10T12:38:28.778Z,15.18
2019-05-10T12:40:51.538Z,15.15
2019-05-10T12:43:20.870Z,15.17
2019-05-10T12:45:48.691Z,15.09
2019-05-10T12:48:15.722Z,15.02
2019-05-10T12:50:44.224Z,14.81
2019-05-10T12:53:15.766Z,14.62
2019-05-10T12:55:40.270Z,14.54
2019-05-10T12:58:07.401Z,14.21
2019-05-10T13:00:34.250Z,14.15
2019-05-10T13:03:12.091Z,14.11
2019-05-10T13:05:33.971Z,14.16
2019-05-10T13:08:00.393Z,14.20
2019-05-10T13:10:28.497Z,14.26
2019-05-10T13:12:56.694Z,14.17
2019-05-10T13:15:24.780Z,14.18
2019-05-10T13:17:53.260Z,14.16
2019-05-10T13:20:21.010Z,14.23
2019-05-10T13:22:48.217Z,14.18
2019-05-10T13:25:15.794Z,14.32
2019-05-10T13:27:42.988Z,14.79
2019-05-10T13:30:10.117Z,15.46
2019-05-10T13:32:37.601Z,15.92
2019-05-10T13:35:05.684Z,16.36
2019-05-10T13:37:35.656Z,16.63
2019-05-10T13:40:07.596Z,16.82
2019-05-10T13:42:36.563Z,17.17
2019-05-10T13:45:04.668Z,17.39
2019-05-10T13:47:32.400Z,17.92
2019-05-10T13:49:59.966Z,18.31
2019-05-10T13:52:29.959Z,18.31
2019-05-10T13:54:57.460Z,18.12
2019-05-10T13:57:24.617Z,18.21
2019-05-10T13:59:55.246Z,18.19
2019-05-10T14:02:22.813Z,17.93
2019-05-10T14:04:49.228Z,18.08
2019-05-10T14:07:17.896Z,18.57
2019-05-10T14:09:45.085Z,18.91
2019-05-10T14:12:16.155Z,18.93
2019-05-10T14:14:40.518Z,18.94
2019-05-10T14:17:07.419Z,18.78
2019-05-10T14:19:36.197Z,18.81
2019-05-10T14:22:03.412Z,18.73
2019-05-10T14:24:30.242Z,18.60
2019-05-10T14:26:59.330Z,18.77
2019-05-10T14:29:34.767Z,18.64
2019-05-10T14:31:59.087Z,18.43
2019-05-10T14:34:25.883Z,18.50
2019-05-10T14:36:52.651Z,18.59
2019-05-10T14:39:23.234Z,18.67
2019-05-10T14:41:51.547Z,18.56
2019-05-10T14:44:19.585Z,18.60
2019-05-10T14:46:46.406Z,18.54
2019-05-10T14:49:13.583Z,18.37
2019-05-10T14:51:57.804Z,18.35
2019-05-10T14:54:09.669Z,18.56
2019-05-10T14:56:36.656Z,18.82
2019-05-10T14:59:04.029Z,18.87
2019-05-10T15:01:30.823Z,18.64
2019-05-10T15:03:57.616Z,18.65
2019-05-10T15:06:24.642Z,18.64
2019-05-10T15:08:51.446Z,18.67
2019-05-10T15:11:18.329Z,18.53
2019-05-10T15:13:54.351Z,18.28
2019-05-10T15:16:27.407Z,18.31
2019-05-10T15:18:53.756Z,18.34
2019-05-10T15:21:21.061Z,18.48
2019-05-10T15:23:47.983Z,18.40
2019-05-10T15:26:14.800Z,18.61
2019-05-10T15:28:42.654Z,18.70
2019-05-10T15:31:11.370Z,18.44
2019-05-10T15:33:38.657Z,18.30
2019-05-10T15:36:10.793Z,18.18
2019-05-10T15:38:40.495Z,17.79
2019-05-10T15:41:06.551Z,17.62
2019-05-10T15:43:33.523Z,17.41
2019-05-10T15:46:00.397Z,17.32
2019-05-10T15:48:27.498Z,17.17
2019-05-10T15:50:54.498Z,17.09
2019-05-10T15:53:25.728Z,17.01
2019-05-10T15:55:51.133Z,16.98
2019-05-10T15:58:18.229Z,16.84
2019-05-10T16:00:45.474Z,16.86
2019-05-10T16:03:21.819Z,16.84
2019-05-10T16:06:00.280Z,16.84
2019-05-10T16:08:18.215Z,16.80
2019-05-10T16:10:47.389Z,16.73
2019-05-10T16:13:22.842Z,16.72
2019-05-10T16:15:46.438Z,16.70
2019-05-10T16:18:15.280Z,16.59
2019-05-10T16:20:42.081Z,16.49
2019-05-10T16:23:11.028Z,16.47
2019-05-10T16:25:47.562Z,16.46
2019-05-10T16:28:15.491Z,16.49
2019-05-10T16:30:41.474Z,16.49
2019-05-10T16:33:09.806Z,16.52
2019-05-10T16:35:39.058Z,16.55
2019-05-10T16:38:05.807Z,16.52
2019-05-10T16:40:32.784Z,16.48
2019-05-10T16:42:59.655Z,16.48
2019-05-10T16:45:26.378Z,16.49
2019-05-10T16:47:53.263Z,16.48
2019-05-10T16:50:20.042Z,16.46
2019-05-10T16:52:47.176Z,16.46
2019-05-10T16:55:14.034Z,16.40
2019-05-10T16:57:40.800Z,16.33
2019-05-10T17:00:10.691Z,16.28
2019-05-10T17:02:42.080Z,16.25
2019-05-10T17:05:09.612Z,16.22
2019-05-10T17:07:36.274Z,16.22
2019-05-10T17:10:08.511Z,16.23
2019-05-10T17:12:35.461Z,16.26
2019-05-10T17:15:04.791Z,16.31
2019-05-10T17:17:37.310Z,16.31
2019-05-10T17:20:01.182Z,16.31
2019-05-10T17:22:28.165Z,16.30
2019-05-10T17:24:57.083Z,16.29
2019-05-10T17:27:24.238Z,16.26
2019-05-10T17:29:51.541Z,16.22
2019-05-10T17:32:24.255Z,16.21
2019-05-10T17:34:47.005Z,16.20
2019-05-10T17:37:14.152Z,16.15
2019-05-10T17:39:41.022Z,16.13
2019-05-10T17:42:08.074Z,16.11
2019-05-10T17:44:34.902Z,16.10
2019-05-10T17:47:01.716Z,16.07
2019-05-10T17:49:28.573Z,16.01
2019-05-10T17:51:55.345Z,15.94
2019-05-10T17:54:22.178Z,15.88
2019-05-10T17:56:48.924Z,15.84
2019-05-10T17:59:15.877Z,15.83
2019-05-10T18:01:42.944Z,15.82
2019-05-10T18:04:09.828Z,15.81
2019-05-10T18:06:36.580Z,15.79
2019-05-10T18:09:05.691Z,15.78
2019-05-10T18:11:36.982Z,15.76
2019-05-10T18:14:03.116Z,15.75
2019-05-10T18:16:30.183Z,15.73
2019-05-10T18:18:57.041Z,15.72
2019-05-10T18:21:24.600Z,15.71
2019-05-10T18:23:52.581Z,15.70
2019-05-10T18:26:20.278Z,15.64
2019-05-10T18:28:47.179Z,15.57
2019-05-10T18:31:14.843Z,15.51
2019-05-10T18:33:44.821Z,15.45
2019-05-10T18:36:11.131Z,15.40
2019-05-10T18:38:39.016Z,15.24
2019-05-10T18:41:10.016Z,15.14
2019-05-10T18:43:40.508Z,15.05
2019-05-10T18:46:04.361Z,14.97
2019-05-10T18:48:31.445Z,14.78
2019-05-10T18:50:58.327Z,14.74
2019-05-10T18:53:25.488Z,14.65
2019-05-10T18:55:52.220Z,14.54
2019-05-10T18:58:23.314Z,14.52
2019-05-10T19:00:56.016Z,14.40
2019-05-10T19:03:20.528Z,14.31
2019-05-10T19:05:50.726Z,14.05
2019-05-10T19:08:17.585Z,14.08
2019-05-10T19:10:44.762Z,13.86
2019-05-10T19:13:12.014Z,13.64
2019-05-10T19:15:39.526Z,13.56
2019-05-10T19:18:06.975Z,13.50
2019-05-10T19:20:34.095Z,13.40
2019-05-10T19:23:01.159Z,13.39
2019-05-10T19:25:28.180Z,13.28
2019-05-10T19:27:55.377Z,13.13
2019-05-10T19:30:22.951Z,13.12
2019-05-10T19:32:50.920Z,13.07
2019-05-10T19:35:18.367Z,13.17
2019-05-10T19:37:45.726Z,13.24
2019-05-10T19:40:13.758Z,13.09
2019-05-10T19:42:43.117Z,13.19
2019-05-10T19:45:13.023Z,13.24
2019-05-10T19:47:39.516Z,13.12
2019-05-10T19:50:07.393Z,13.13
2019-05-10T19:52:58.472Z,13.12
2019-05-10T19:55:22.823Z,13.10
2019-05-10T19:57:54.774Z,13.05
2019-05-10T20:00:20.070Z,13.06
2019-05-10T20:02:46.871Z,13.15
2019-05-10T20:05:14.055Z,13.16
2019-05-10T20:07:45.966Z,13.05
2019-05-10T20:10:11.656Z,12.95
2019-05-10T20:12:38.984Z,12.93
2019-05-10T20:15:06.327Z,12.91
2019-05-10T20:17:33.398Z,12.91
2019-05-10T20:20:01.114Z,12.74
2019-05-10T20:22:27.866Z,12.93
2019-05-10T20:24:54.762Z,12.81
2019-05-10T20:27:22.523Z,12.72
2019-05-10T20:29:49.641Z,12.66
2019-05-10T20:32:16.798Z,12.64
2019-05-10T20:34:43.683Z,12.75
2019-05-10T20:37:11.281Z,12.68
2019-05-10T20:39:38.095Z,12.73
2019-05-10T20:42:05.591Z,12.77
2019-05-10T20:44:32.342Z,12.83
2019-05-10T20:47:01.114Z,12.79
2019-05-10T20:49:28.004Z,12.64
2019-05-10T20:51:54.761Z,12.63
2019-05-10T20:54:21.748Z,12.61
2019-05-10T20:56:48.556Z,12.61
2019-05-10T20:59:15.731Z,12.62
2019-05-10T21:01:42.851Z,12.63
2019-05-10T21:04:09.740Z,12.63
2019-05-10T21:06:36.505Z,12.57
2019-05-10T21:09:05.449Z,12.61
2019-05-10T21:11:32.418Z,12.52
2019-05-10T21:13:59.316Z,12.35
2019-05-10T21:16:26.170Z,12.36
2019-05-10T21:18:53.325Z,12.38
2019-05-10T21:21:21.332Z,12.43
2019-05-10T21:23:48.472Z,12.42
2019-05-10T21:26:15.318Z,12.47
2019-05-10T21:28:42.102Z,12.46
2019-05-10T21:31:09.043Z,12.57
2019-05-10T21:33:36.650Z,12.58
2019-05-10T21:36:03.564Z,12.63
2019-05-10T21:38:33.403Z,12.59
2019-05-10T21:40:59.511Z,12.61
2019-05-10T21:43:26.771Z,12.64
2019-05-10T21:45:54.019Z,12.67
2019-05-10T21:48:20.866Z,12.58
2019-05-10T21:50:48.243Z,12.51
2019-05-10T21:53:18.155Z,12.35
2019-05-10T21:55:45.100Z,12.12
2019-05-10T21:58:12.255Z,12.23
2019-05-10T22:00:41.632Z,12.27
2019-05-10T22:03:08.760Z,12.32
2019-05-10T22:05:37.843Z,12.26
2019-05-10T22:08:05.035Z,12.09
2019-05-10T22:10:32.049Z,12.10
2019-05-10T22:12:58.855Z,12.21
2019-05-10T22:15:26.124Z,12.21
2019-05-10T22:17:53.337Z,12.11
2019-05-10T22:20:20.329Z,11.95
2019-05-10T22:22:47.675Z,11.82
2019-05-10T22:25:14.511Z,11.80
2019-05-10T22:27:41.339Z,11.77
2019-05-10T22:30:12.516Z,11.70
2019-05-10T22:32:40.162Z,11.71
2019-05-10T22:35:07.269Z,11.69
2019-05-10T22:37:34.169Z,11.73
2019-05-10T22:40:01.038Z,11.73
2019-05-10T22:42:27.841Z,11.66
2019-05-10T22:44:56.743Z,11.70
2019-05-10T22:47:25.488Z,11.71
2019-05-10T22:49:52.705Z,11.64
2019-05-10T22:52:20.476Z,11.65
2019-05-10T22:54:47.652Z,11.64
2019-05-10T22:57:16.824Z,11.63
2019-05-10T22:59:43.611Z,11.64
2019-05-10T23:02:12.177Z,11.68
2019-05-10T23:04:39.627Z,11.64
2019-05-10T23:07:06.563Z,11.70
2019-05-10T23:09:33.461Z,11.87
2019-05-10T23:12:00.269Z,11.82
2019-05-10T23:14:27.055Z,11.81
2019-05-10T23:16:53.900Z,11.83
2019-05-10T23:19:20.695Z,11.89
2019-05-10T23:21:47.495Z,11.87
2019-05-10T23:24:16.312Z,11.87
2019-05-10T23:26:44.141Z,11.94
2019-05-10T23:29:10.944Z,11.93
2019-05-10T23:31:38.144Z,11.95
2019-05-10T23:34:04.994Z,11.99
2019-05-10T23:36:31.916Z,11.99
2019-05-10T23:38:58.752Z,12.02
2019-05-10T23:41:25.569Z,12.03
2019-05-10T23:43:53.018Z,12.04
2019-05-10T23:46:19.866Z,12.08
2019-05-10T23:48:47.047Z,12.08
2019-05-10T23:51:13.828Z,12.07
2019-05-10T23:53:41.104Z,11.99
2019-05-10T23:56:08.293Z,11.95
2019-05-10T23:58:35.208Z,11.94
